createdAt,value
2018-12-29T00:00:45.137Z,6.90
2018-12-29T00:02:46.862Z,6.90
2018-12-29T00:04:48.670Z,6.80
2018-12-29T00:06:50.406Z,6.80
2018-12-29T00:08:52.126Z,6.70
2018-12-29T00:10:53.850Z,6.70
2018-12-29T00:12:55.586Z,6.70
2018-12-29T00:14:57.297Z,6.70
2018-12-29T00:16:59.018Z,6.70
2018-12-29T00:19:00.937Z,6.70
2018-12-29T00:21:02.909Z,6.70
2018-12-29T00:23:04.647Z,6.70
2018-12-29T00:25:06.394Z,6.70
2018-12-29T00:27:08.110Z,6.70
2018-12-29T00:29:09.847Z,6.60
2018-12-29T00:31:11.594Z,6.60
2018-12-29T00:33:13.327Z,6.60
2018-12-29T00:35:15.062Z,6.60
2018-12-29T00:37:17.043Z,6.60
2018-12-29T00:39:18.777Z,6.50
2018-12-29T00:41:20.603Z,6.60
2018-12-29T00:43:22.381Z,6.60
2018-12-29T00:45:24.275Z,6.50
2018-12-29T00:47:26.015Z,6.50
2018-12-29T00:49:27.827Z,6.50
2018-12-29T00:51:29.551Z,6.50
2018-12-29T00:53:31.525Z,6.50
2018-12-29T00:55:33.262Z,6.50
2018-12-29T00:57:35.094Z,6.50
2018-12-29T00:59:36.833Z,6.50
2018-12-29T01:01:38.953Z,6.50
2018-12-29T01:03:40.693Z,6.50
2018-12-29T01:05:42.400Z,6.50
2018-12-29T01:07:44.137Z,6.50
2018-12-29T01:09:46.058Z,6.50
2018-12-29T01:11:48.080Z,6.50
2018-12-29T01:13:49.814Z,6.50
2018-12-29T01:15:51.561Z,6.50
2018-12-29T01:17:53.290Z,6.50
2018-12-29T01:19:55.234Z,6.60
2018-12-29T01:21:56.969Z,6.50
2018-12-29T01:23:58.693Z,6.50
2018-12-29T01:26:00.425Z,6.60
2018-12-29T01:28:02.155Z,6.60
2018-12-29T01:30:05.337Z,6.60
2018-12-29T01:32:07.033Z,6.60
2018-12-29T01:34:08.745Z,6.60
2018-12-29T01:36:10.479Z,6.60
2018-12-29T01:38:12.209Z,6.60
2018-12-29T01:40:13.931Z,6.60
2018-12-29T01:42:15.659Z,6.60
2018-12-29T01:44:17.378Z,6.60
2018-12-29T01:46:19.110Z,6.60
2018-12-29T01:48:20.861Z,6.70
2018-12-29T01:50:22.585Z,6.60
2018-12-29T01:52:24.285Z,6.60
2018-12-29T01:54:26.261Z,6.60
2018-12-29T01:56:27.981Z,6.60
2018-12-29T01:58:29.685Z,6.60
2018-12-29T02:00:31.722Z,6.60
2018-12-29T02:02:33.439Z,6.60
2018-12-29T02:04:35.161Z,6.60
2018-12-29T02:06:36.906Z,6.60
2018-12-29T02:08:38.865Z,6.60
2018-12-29T02:10:40.589Z,6.60
2018-12-29T02:12:42.327Z,6.60
2018-12-29T02:14:44.026Z,6.60
2018-12-29T02:16:45.852Z,6.60
2018-12-29T02:18:49.286Z,6.60
2018-12-29T02:20:51.253Z,6.60
2018-12-29T02:22:52.976Z,6.60
2018-12-29T02:24:54.693Z,6.60
2018-12-29T02:26:56.548Z,6.60
2018-12-29T02:28:58.265Z,6.50
2018-12-29T02:30:59.975Z,6.60
2018-12-29T02:33:01.726Z,6.60
2018-12-29T02:35:03.600Z,6.60
2018-12-29T02:37:05.319Z,6.60
2018-12-29T02:39:07.179Z,6.60
2018-12-29T02:41:08.921Z,6.60
2018-12-29T02:43:10.645Z,6.60
2018-12-29T02:45:12.406Z,6.60
2018-12-29T02:47:14.126Z,6.60
2018-12-29T02:49:15.849Z,6.70
2018-12-29T02:51:17.675Z,6.60
2018-12-29T02:53:19.387Z,6.70
2018-12-29T02:55:21.090Z,6.70
2018-12-29T02:57:22.841Z,6.70
2018-12-29T02:59:24.553Z,6.70
2018-12-29T03:01:26.289Z,6.70
2018-12-29T03:03:28.226Z,6.70
2018-12-29T03:05:29.938Z,6.80
2018-12-29T03:07:31.659Z,6.70
2018-12-29T03:09:33.407Z,6.70
2018-12-29T03:11:35.117Z,6.70
2018-12-29T03:13:36.866Z,6.70
2018-12-29T03:15:41.700Z,6.70
2018-12-29T03:17:42.390Z,6.70
2018-12-29T03:19:44.103Z,6.80
2018-12-29T03:21:46.166Z,6.70
2018-12-29T03:23:50.581Z,6.70
2018-12-29T03:25:52.320Z,6.70
2018-12-29T03:27:54.297Z,6.80
2018-12-29T03:29:56.014Z,6.80
2018-12-29T03:31:57.742Z,6.70
2018-12-29T03:33:59.480Z,6.80
2018-12-29T03:36:01.192Z,6.80
2018-12-29T03:38:02.906Z,6.70
2018-12-29T03:40:05.490Z,6.70
2018-12-29T03:42:07.213Z,6.70
2018-12-29T03:44:08.947Z,6.70
2018-12-29T03:46:11.988Z,6.70
2018-12-29T03:48:13.709Z,6.70
2018-12-29T05:05:26.601Z,7.20
2018-12-29T05:07:30.837Z,7.10
2018-12-29T05:09:32.560Z,7.10
2018-12-29T05:11:34.308Z,7.10
2018-12-29T05:13:36.029Z,7.10
2018-12-29T05:15:37.756Z,7.10
2018-12-29T05:17:39.503Z,7.10
2018-12-29T05:19:41.219Z,7.10
2018-12-29T05:21:42.928Z,7.10
2018-12-29T05:23:45.009Z,7.10
2018-12-29T05:25:46.715Z,7.10
2018-12-29T05:27:48.498Z,7.20
2018-12-29T05:29:50.475Z,7.20
2018-12-29T05:31:52.185Z,7.20
2018-12-29T05:33:53.939Z,7.20
2018-12-29T05:35:56.242Z,7.20
2018-12-29T05:37:57.945Z,7.20
2018-12-29T05:39:59.686Z,7.20
2018-12-29T05:42:01.435Z,7.20
2018-12-29T05:44:03.239Z,7.30
2018-12-29T05:46:04.972Z,7.30
2018-12-29T05:48:06.708Z,7.20
2018-12-29T05:50:08.439Z,7.30
2018-12-29T05:52:10.158Z,7.30
2018-12-29T05:54:11.911Z,7.30
2018-12-29T05:56:13.645Z,7.30
2018-12-29T05:58:15.470Z,7.30
2018-12-29T06:00:17.657Z,7.30
2018-12-29T06:02:19.369Z,7.30
2018-12-29T06:04:21.073Z,7.30
2018-12-29T06:06:22.805Z,7.30
2018-12-29T06:08:24.549Z,7.20
2018-12-29T06:10:26.270Z,7.30
2018-12-29T06:12:28.381Z,7.30
2018-12-29T06:14:30.101Z,7.30
2018-12-29T06:16:31.817Z,7.30
2018-12-29T06:18:33.954Z,7.30
2018-12-29T06:20:35.660Z,7.30
2018-12-29T06:22:37.377Z,7.30
2018-12-29T06:24:39.322Z,7.30
2018-12-29T06:26:41.037Z,7.30
2018-12-29T06:28:42.769Z,7.30
2018-12-29T06:30:44.593Z,7.30
2018-12-29T06:32:46.309Z,7.30
2018-12-29T06:34:48.143Z,7.30
2018-12-29T06:36:49.979Z,7.30
2018-12-29T06:39:11.386Z,7.30
2018-12-29T06:41:32.741Z,7.30
2018-12-29T06:43:54.118Z,7.30
2018-12-29T06:46:15.481Z,7.30
2018-12-29T06:48:36.829Z,7.30
2018-12-29T06:50:58.222Z,7.30
2018-12-29T06:53:19.569Z,7.30
2018-12-29T06:55:40.933Z,7.40
2018-12-29T06:58:02.642Z,7.40
2018-12-29T07:00:23.993Z,7.40
2018-12-29T07:02:45.344Z,7.40
2018-12-29T07:05:06.706Z,7.40
2018-12-29T07:07:28.201Z,7.40
2018-12-29T07:09:49.565Z,7.40
2018-12-29T07:12:11.105Z,7.40
2018-12-29T07:14:32.449Z,7.40
2018-12-29T07:16:53.835Z,7.40
2018-12-29T07:19:15.277Z,7.40
2018-12-29T07:21:36.651Z,7.40
2018-12-29T07:23:58.025Z,7.40
2018-12-29T07:26:19.509Z,7.40
2018-12-29T07:28:40.866Z,7.40
2018-12-29T07:31:02.225Z,7.40
2018-12-29T07:33:23.697Z,7.40
2018-12-29T07:35:45.053Z,7.40
2018-12-29T07:38:06.414Z,7.40
2018-12-29T07:40:27.829Z,7.40
2018-12-29T07:42:49.185Z,7.40
2018-12-29T07:45:10.549Z,7.40
2018-12-29T07:47:32.085Z,7.40
2018-12-29T07:49:53.441Z,7.40
2018-12-29T07:52:14.795Z,7.40
2018-12-29T07:54:36.271Z,7.40
2018-12-29T07:56:57.666Z,7.40
2018-12-29T07:59:19.028Z,7.40
2018-12-29T08:01:23.233Z,7.40
2018-12-29T08:03:44.625Z,7.40
2018-12-29T08:06:06.005Z,7.40
2018-12-29T08:10:54.709Z,7.40
2018-12-29T08:13:16.082Z,7.40
2018-12-29T08:15:37.601Z,7.40
2018-12-29T08:17:51.827Z,7.40
2018-12-29T08:20:04.376Z,7.50
2018-12-29T08:22:18.859Z,7.50
2018-12-29T08:24:31.130Z,7.50
2018-12-29T08:26:52.495Z,7.50
2018-12-29T08:29:13.876Z,7.50
2018-12-29T08:31:35.290Z,7.50
2018-12-29T08:33:56.742Z,7.60
2018-12-29T08:36:18.122Z,7.60
2018-12-29T08:38:39.586Z,7.60
2018-12-29T08:41:00.937Z,7.60
2018-12-29T08:43:22.565Z,7.60
2018-12-29T08:45:43.939Z,7.60
2018-12-29T08:48:05.308Z,7.60
2018-12-29T08:50:26.662Z,7.60
2018-12-29T08:52:48.027Z,7.60
2018-12-29T08:55:09.410Z,7.70
2018-12-29T08:57:30.866Z,7.70
2018-12-29T08:59:32.571Z,7.70
2018-12-29T09:01:54.185Z,7.70
2018-12-29T09:04:15.534Z,7.70
2018-12-29T09:06:36.887Z,7.70
2018-12-29T09:08:58.259Z,7.70
2018-12-29T09:11:19.621Z,7.80
2018-12-29T09:13:40.978Z,7.80
2018-12-29T09:16:02.347Z,7.80
2018-12-29T09:18:23.813Z,7.70
2018-12-29T09:20:46.664Z,7.70
2018-12-29T09:23:01.289Z,7.70
2018-12-29T09:25:13.622Z,7.70
2018-12-29T09:27:15.333Z,7.70
2018-12-29T09:29:36.702Z,7.70
2018-12-29T09:31:38.445Z,7.70
2018-12-29T09:33:59.803Z,7.70
2018-12-29T09:36:21.407Z,7.70
2018-12-29T09:38:35.501Z,7.70
2018-12-29T09:40:56.857Z,7.70
2018-12-29T09:43:18.333Z,7.70
2018-12-29T09:45:39.991Z,7.80
2018-12-29T09:48:01.345Z,7.80
2018-12-29T09:50:22.697Z,7.80
2018-12-29T09:52:24.435Z,7.80
2018-12-29T09:54:45.795Z,7.80
2018-12-29T09:57:07.162Z,7.80
2018-12-29T09:59:28.562Z,7.80
2018-12-29T10:01:50.158Z,7.80
2018-12-29T10:04:11.517Z,7.80
2018-12-29T10:06:32.983Z,7.80
2018-12-29T10:08:54.451Z,7.80
2018-12-29T10:11:16.441Z,7.80
2018-12-29T10:16:07.858Z,7.80
2018-12-29T10:30:16.870Z,8.00
2018-12-29T14:52:42.730Z,7.20
2018-12-29T16:14:46.133Z,7.00
2018-12-29T16:16:58.511Z,6.90
2018-12-29T16:19:20.006Z,6.90
2018-12-29T16:21:41.476Z,6.90
2018-12-29T16:24:04.766Z,6.90
2018-12-29T16:26:26.235Z,6.90
2018-12-29T16:28:40.698Z,6.90
2018-12-29T16:30:55.542Z,6.90
2018-12-29T16:33:07.720Z,6.90
2018-12-29T16:35:29.333Z,6.90
2018-12-29T20:49:39.511Z,7.70
2018-12-29T20:51:41.372Z,7.70
2018-12-29T20:54:02.750Z,7.70
2018-12-29T20:56:24.373Z,7.70
2018-12-29T20:58:45.750Z,7.60
2018-12-29T21:01:07.205Z,7.60
2018-12-29T21:03:28.903Z,7.60
2018-12-29T21:05:50.350Z,7.60
2018-12-29T21:08:11.705Z,7.50
2018-12-29T21:13:00.733Z,7.60
2018-12-29T21:15:22.197Z,7.60
2018-12-29T21:17:43.578Z,7.60
2018-12-29T21:20:05.025Z,7.50
2018-12-29T21:22:26.393Z,7.60
2018-12-29T21:24:47.987Z,7.50
2018-12-29T21:27:09.438Z,7.60
2018-12-29T21:29:30.810Z,7.60
2018-12-29T21:31:52.276Z,7.60
2018-12-29T21:34:04.364Z,7.60
2018-12-29T21:36:06.237Z,7.60
2018-12-29T21:38:27.593Z,7.60
2018-12-29T21:40:49.055Z,7.60
2018-12-29T21:45:38.313Z,7.60
2018-12-29T21:47:59.665Z,7.70
2018-12-29T21:50:25.288Z,7.70
2018-12-29T21:52:44.523Z,7.70
2018-12-29T21:55:07.817Z,7.70
2018-12-29T21:57:29.193Z,7.70
2018-12-29T21:59:41.251Z,7.70
2018-12-29T22:02:02.697Z,7.70
2018-12-29T22:04:24.335Z,7.70
2018-12-29T22:06:45.695Z,7.70
2018-12-29T22:09:07.077Z,7.80
2018-12-29T22:11:28.545Z,7.80
2018-12-29T22:13:49.893Z,7.80
2018-12-29T22:16:11.347Z,7.80
2018-12-29T22:18:34.637Z,7.80
2018-12-29T22:20:56.209Z,7.80
2018-12-29T22:23:37.210Z,7.80
2018-12-29T22:25:58.629Z,7.80
2018-12-29T22:28:19.988Z,7.80
2018-12-29T22:30:41.357Z,7.80
2018-12-29T22:33:02.718Z,7.80
2018-12-29T22:35:24.309Z,7.80
2018-12-29T22:37:45.685Z,7.90
2018-12-29T22:40:07.037Z,7.80
2018-12-29T22:42:28.666Z,7.90
2018-12-29T22:44:50.021Z,7.90
2018-12-29T22:47:11.499Z,7.90
2018-12-29T22:49:34.841Z,7.80
2018-12-29T22:51:56.665Z,7.90
2018-12-29T22:54:18.027Z,7.90
2018-12-29T22:56:39.542Z,7.90
2018-12-29T22:58:41.283Z,7.90
2018-12-29T23:00:46.141Z,7.90
2018-12-29T23:02:47.897Z,7.90
2018-12-29T23:04:49.897Z,7.90
2018-12-29T23:06:51.919Z,7.90
2018-12-29T23:08:53.842Z,7.90
2018-12-29T23:10:55.721Z,7.90
2018-12-29T23:12:57.548Z,8.00
2018-12-29T23:14:59.581Z,8.00
2018-12-29T23:17:01.618Z,8.00
2018-12-29T23:19:03.665Z,8.00
2018-12-29T23:21:05.590Z,8.00
2018-12-29T23:23:07.304Z,8.10
2018-12-29T23:25:09.011Z,8.00
2018-12-29T23:27:11.481Z,8.00
2018-12-29T23:29:13.232Z,8.10
2018-12-29T23:31:14.945Z,8.00
2018-12-29T23:33:16.791Z,8.00
2018-12-29T23:35:18.709Z,8.10
2018-12-29T23:37:20.462Z,8.10
2018-12-29T23:39:22.496Z,8.10
2018-12-29T23:41:24.609Z,8.10
2018-12-29T23:43:26.721Z,8.10
2018-12-29T23:45:28.473Z,8.10
2018-12-29T23:47:30.287Z,8.10
2018-12-29T23:49:32.441Z,8.10
2018-12-29T23:51:34.545Z,8.10
2018-12-29T23:53:36.297Z,8.10
2018-12-29T23:55:38.424Z,8.10
2018-12-29T23:57:40.147Z,8.20
2018-12-29T23:59:41.999Z,8.10
